Terminal Aerodrome Forecast
Issued by NWS

Home | Current Version | Previous Version | Text Only | Print | Product List | Glossary On
Versions: 1 2 3 4 5 6 7 8 9 10 11 12 13 14 15 16 17 18 19 20 21 22 23 24
000
FTUS45 KGJT 200528
TAFMTJ
TAF
KMTJ 200528Z 2006/2106 14008KT P6SM SKC
     FM201600 33007KT P6SM FEW120
     FM202100 01007KT P6SM SCT120 BKN250
     FM210200 14005KT P6SM FEW120 BKN250=

USA.gov is the U.S. government's official web portal to all federal, state and local government web resources and services.